createdAt,value
2017-06-25T00:00:54.190Z,76.04
2017-06-25T00:03:21.823Z,76.58
2017-06-25T00:05:49.239Z,77.61
2017-06-25T00:08:16.646Z,76.60
2017-06-25T00:10:44.054Z,77.36
2017-06-25T00:13:11.451Z,77.45
2017-06-25T00:15:38.860Z,76.37
2017-06-25T00:18:06.256Z,77.29
2017-06-25T00:20:33.671Z,77.32
2017-06-25T00:23:01.071Z,76.85
2017-06-25T00:25:28.483Z,76.78
2017-06-25T00:27:55.880Z,76.57
2017-06-25T00:30:23.366Z,76.92
2017-06-25T00:32:50.780Z,77.41
2017-06-25T00:35:18.167Z,77.84
2017-06-25T00:37:45.599Z,77.05
2017-06-25T00:40:13.003Z,77.28
2017-06-25T00:42:40.411Z,77.34
2017-06-25T00:45:07.815Z,77.08
2017-06-25T00:47:35.215Z,77.83
2017-06-25T00:50:02.610Z,77.85
2017-06-25T00:52:30.022Z,77.64
2017-06-25T00:54:57.427Z,77.02
2017-06-25T00:57:24.831Z,76.75
2017-06-25T00:59:52.223Z,77.28
2017-06-25T01:02:19.627Z,76.80
2017-06-25T01:04:47.022Z,76.51
2017-06-25T01:07:14.427Z,76.23
2017-06-25T01:09:42.083Z,76.22
2017-06-25T01:12:09.487Z,76.72
2017-06-25T01:14:36.887Z,76.12
2017-06-25T01:17:04.288Z,75.98
2017-06-25T01:19:31.687Z,76.15
2017-06-25T01:21:59.087Z,75.41
2017-06-25T01:24:26.483Z,75.99
2017-06-25T01:26:53.891Z,75.72
2017-06-25T01:29:21.286Z,75.36
2017-06-25T01:31:48.700Z,75.82
2017-06-25T01:34:16.086Z,75.39
2017-06-25T01:36:43.495Z,75.98
2017-06-25T01:39:10.891Z,75.89
2017-06-25T01:41:38.305Z,75.51
2017-06-25T01:44:05.708Z,76.19
2017-06-25T01:46:33.107Z,75.94
2017-06-25T01:49:00.506Z,76.48
2017-06-25T01:51:27.915Z,75.07
2017-06-25T01:53:55.320Z,75.16
2017-06-25T01:56:22.715Z,76.03
2017-06-25T01:58:50.120Z,76.18
2017-06-25T02:01:17.514Z,76.05
2017-06-25T02:03:45.206Z,75.84
2017-06-25T02:06:12.607Z,76.86
2017-06-25T02:08:40.014Z,76.66
2017-06-25T02:11:07.412Z,76.70
2017-06-25T02:13:34.827Z,76.40
2017-06-25T02:16:02.491Z,75.90
2017-06-25T02:18:29.895Z,75.85
2017-06-25T02:20:57.306Z,76.10
2017-06-25T02:23:24.706Z,75.16
2017-06-25T02:25:52.123Z,75.10
2017-06-25T02:28:19.781Z,75.48
2017-06-25T02:30:47.175Z,74.39
2017-06-25T02:33:14.598Z,73.49
2017-06-25T02:35:41.995Z,73.98
2017-06-25T02:38:09.402Z,74.72
2017-06-25T02:40:36.846Z,74.48
2017-06-25T02:43:04.258Z,74.46
2017-06-25T02:45:31.670Z,73.90
2017-06-25T02:47:59.070Z,73.94
2017-06-25T02:50:26.787Z,73.61
2017-06-25T02:53:20.389Z,74.20
2017-06-25T02:55:48.007Z,73.71
2017-06-25T02:58:15.408Z,74.39
2017-06-25T03:00:42.827Z,74.69
2017-06-25T03:03:10.263Z,74.03
2017-06-25T03:05:37.659Z,74.20
2017-06-25T03:08:05.059Z,74.15
2017-06-25T03:10:32.472Z,74.61
2017-06-25T03:12:59.868Z,73.82
2017-06-25T03:15:27.279Z,74.25
2017-06-25T03:17:54.682Z,76.43
2017-06-25T03:20:22.091Z,75.87
2017-06-25T03:22:49.487Z,76.21
2017-06-25T03:25:16.890Z,76.29
2017-06-25T03:27:44.288Z,76.27
2017-06-25T03:30:11.690Z,75.47
2017-06-25T03:32:39.090Z,76.21
2017-06-25T03:35:06.491Z,75.33
2017-06-25T03:37:33.899Z,76.03
2017-06-25T03:40:01.303Z,74.92
2017-06-25T03:42:28.703Z,75.99
2017-06-25T03:44:56.122Z,75.76
2017-06-25T03:47:23.503Z,75.48
2017-06-25T03:49:50.907Z,76.24
2017-06-25T03:52:18.302Z,76.41
2017-06-25T03:54:45.706Z,76.49
2017-06-25T03:57:13.103Z,76.56
2017-06-25T03:59:40.515Z,76.38
2017-06-25T04:02:07.911Z,76.17
2017-06-25T04:04:35.315Z,76.33
2017-06-25T04:07:02.707Z,76.77
2017-06-25T04:09:30.115Z,76.16
2017-06-25T04:11:57.511Z,76.38
2017-06-25T04:14:24.917Z,77.29
2017-06-25T04:16:52.320Z,77.19
2017-06-25T04:19:19.708Z,77.19
2017-06-25T04:21:47.356Z,77.81
2017-06-25T04:24:14.750Z,77.63
2017-06-25T04:26:42.155Z,76.95
2017-06-25T04:29:09.771Z,77.69
2017-06-25T04:31:37.175Z,77.99
2017-06-25T04:34:04.843Z,78.13
2017-06-25T04:36:32.248Z,77.67
2017-06-25T04:38:59.642Z,78.12
2017-06-25T04:41:27.042Z,78.47
2017-06-25T04:43:54.440Z,77.86
2017-06-25T04:46:21.843Z,77.76
2017-06-25T04:48:49.251Z,77.71
2017-06-25T04:51:16.650Z,77.57
2017-06-25T04:53:44.047Z,78.20
2017-06-25T04:56:11.458Z,78.13
2017-06-25T04:58:38.870Z,78.34
2017-06-25T05:01:06.267Z,77.80
2017-06-25T05:03:33.676Z,78.58
2017-06-25T05:06:01.067Z,78.83
2017-06-25T05:08:28.463Z,78.87
2017-06-25T05:10:55.867Z,79.45
2017-06-25T05:13:23.258Z,78.48
2017-06-25T05:15:50.663Z,78.89
2017-06-25T05:18:18.063Z,78.42
2017-06-25T05:20:45.463Z,78.28
2017-06-25T05:23:12.872Z,79.18
2017-06-25T05:25:40.275Z,79.45
2017-06-25T05:28:07.971Z,79.47
2017-06-25T05:30:35.390Z,79.30
2017-06-25T05:33:02.798Z,79.31
2017-06-25T05:35:30.200Z,78.88
2017-06-25T05:37:57.603Z,79.09
2017-06-25T05:40:25.011Z,78.91
2017-06-25T05:42:52.419Z,78.75
2017-06-25T05:45:19.819Z,78.79
2017-06-25T05:47:47.235Z,79.07
2017-06-25T05:50:15.419Z,79.70
2017-06-25T05:52:48.366Z,79.66
2017-06-25T05:55:17.071Z,78.94
2017-06-25T05:57:46.561Z,78.74
2017-06-25T06:00:14.183Z,79.13
2017-06-25T06:02:41.587Z,78.01
2017-06-25T06:05:08.987Z,79.12
2017-06-25T06:07:36.387Z,79.31
2017-06-25T06:10:03.786Z,78.89
2017-06-25T06:12:31.191Z,79.24
2017-06-25T06:14:58.611Z,78.94
2017-06-25T06:17:26.006Z,78.98
2017-06-25T06:19:53.424Z,78.70
2017-06-25T06:22:20.832Z,78.29
2017-06-25T06:24:48.231Z,78.25
2017-06-25T06:27:15.635Z,78.14
2017-06-25T06:29:43.036Z,77.34
2017-06-25T06:32:10.458Z,77.59
2017-06-25T06:34:37.841Z,77.29
2017-06-25T06:37:05.256Z,77.23
2017-06-25T06:39:32.652Z,78.57
2017-06-25T06:42:00.047Z,77.18
2017-06-25T06:44:27.450Z,77.31
2017-06-25T06:46:54.839Z,79.57
2017-06-25T06:49:22.232Z,81.42
2017-06-25T06:51:49.619Z,81.53
2017-06-25T06:54:17.014Z,81.31
2017-06-25T06:56:44.410Z,80.92
2017-06-25T06:59:11.803Z,80.07
2017-06-25T07:01:39.219Z,77.24
2017-06-25T07:04:06.624Z,75.75
2017-06-25T07:06:34.010Z,75.62
2017-06-25T07:09:01.675Z,75.53
2017-06-25T07:11:29.065Z,75.50
2017-06-25T07:13:56.459Z,74.75
2017-06-25T07:16:23.850Z,74.90
2017-06-25T07:18:51.248Z,74.09
2017-06-25T07:21:18.855Z,73.89
2017-06-25T07:23:46.255Z,75.41
2017-06-25T07:26:14.659Z,74.51
2017-06-25T07:28:42.066Z,73.84
2017-06-25T07:31:09.455Z,73.68
2017-06-25T07:33:36.850Z,73.69
2017-06-25T07:36:04.249Z,74.14
2017-06-25T07:38:31.640Z,74.55
2017-06-25T07:40:59.046Z,73.76
2017-06-25T07:43:26.443Z,74.00
2017-06-25T07:45:53.834Z,73.35
2017-06-25T07:48:21.239Z,73.18
2017-06-25T07:50:49.603Z,73.31
2017-06-25T07:53:16.999Z,73.42
2017-06-25T07:55:44.391Z,73.20
2017-06-25T07:58:11.787Z,72.50
2017-06-25T08:00:39.187Z,72.35
2017-06-25T08:03:06.585Z,72.58
2017-06-25T08:05:33.971Z,72.58
2017-06-25T08:08:01.597Z,72.55
2017-06-25T08:10:28.975Z,72.64
2017-06-25T08:12:56.375Z,73.10
2017-06-25T08:15:23.767Z,73.38
2017-06-25T08:17:51.163Z,73.44
2017-06-25T08:20:18.562Z,73.80
2017-06-25T08:22:45.942Z,73.83
2017-06-25T08:25:13.372Z,73.79
2017-06-25T08:27:40.826Z,73.40
2017-06-25T08:30:08.214Z,73.08
2017-06-25T08:32:35.614Z,73.09
2017-06-25T08:35:03.007Z,73.11
2017-06-25T08:37:30.411Z,73.51
2017-06-25T08:39:58.083Z,73.96
2017-06-25T08:42:25.473Z,73.02
2017-06-25T08:44:52.878Z,73.74
2017-06-25T08:47:20.272Z,74.58
2017-06-25T08:49:47.673Z,75.67
2017-06-25T08:52:15.059Z,74.15
2017-06-25T08:54:42.455Z,75.40
2017-06-25T08:57:09.851Z,74.44
2017-06-25T08:59:37.246Z,73.80
2017-06-25T09:02:04.632Z,73.95
2017-06-25T09:04:32.035Z,73.72
2017-06-25T09:06:59.427Z,73.25
2017-06-25T09:09:26.831Z,73.05
2017-06-25T09:11:54.223Z,73.20
2017-06-25T09:14:21.622Z,72.47
2017-06-25T09:16:49.031Z,72.57
2017-06-25T09:19:16.422Z,72.83
2017-06-25T09:21:43.828Z,73.75
2017-06-25T09:24:11.216Z,74.13
2017-06-25T09:26:38.630Z,73.83
2017-06-25T09:29:06.019Z,74.11
2017-06-25T09:31:33.414Z,73.51
2017-06-25T09:34:00.814Z,72.78
2017-06-25T09:36:28.227Z,72.57
2017-06-25T09:38:55.622Z,70.35
2017-06-25T09:41:23.019Z,70.76
2017-06-25T09:43:50.430Z,70.77
2017-06-25T09:46:17.835Z,70.60
2017-06-25T09:48:45.218Z,69.83
2017-06-25T09:51:12.615Z,71.09
2017-06-25T09:53:40.250Z,71.26
2017-06-25T09:56:07.652Z,70.89
2017-06-25T09:58:35.042Z,72.26
2017-06-25T10:01:02.443Z,72.42
2017-06-25T10:03:29.831Z,71.74
2017-06-25T10:05:57.229Z,72.53
2017-06-25T10:08:24.619Z,71.72
2017-06-25T10:10:52.036Z,70.85
2017-06-25T10:13:19.427Z,69.77
2017-06-25T10:15:46.814Z,69.64
2017-06-25T10:18:14.214Z,69.64
2017-06-25T10:20:41.602Z,70.54
2017-06-25T10:23:08.999Z,70.14
2017-06-25T10:25:36.390Z,70.41
2017-06-25T10:28:03.791Z,70.40
2017-06-25T10:30:31.179Z,70.78
2017-06-25T10:32:58.570Z,70.43
2017-06-25T10:35:25.963Z,70.26
2017-06-25T10:37:53.358Z,70.23
2017-06-25T10:40:20.752Z,70.47
2017-06-25T10:42:48.154Z,69.57
2017-06-25T10:45:15.540Z,71.44
2017-06-25T10:47:42.939Z,72.59
2017-06-25T10:50:10.331Z,70.15
2017-06-25T10:52:37.731Z,71.15
2017-06-25T10:55:05.122Z,69.86
2017-06-25T10:57:32.535Z,69.83
2017-06-25T10:59:59.919Z,71.28
2017-06-25T11:02:27.335Z,69.98
2017-06-25T11:04:54.731Z,69.79
2017-06-25T11:07:22.115Z,70.32
2017-06-25T11:09:49.507Z,70.52
2017-06-25T11:12:16.907Z,70.51
2017-06-25T11:14:44.299Z,72.21
2017-06-25T11:17:11.695Z,74.28
2017-06-25T11:19:39.114Z,68.62
2017-06-25T11:22:06.479Z,69.91
2017-06-25T11:24:33.880Z,70.44
2017-06-25T11:27:01.271Z,72.26
2017-06-25T11:29:28.667Z,72.40
2017-06-25T11:31:56.079Z,73.47
2017-06-25T11:34:23.475Z,73.72
2017-06-25T11:36:50.868Z,73.08
2017-06-25T11:39:18.274Z,73.04
2017-06-25T11:41:45.750Z,73.49
2017-06-25T11:44:13.147Z,73.77
2017-06-25T11:46:40.531Z,72.09
2017-06-25T11:49:07.925Z,72.88
2017-06-25T11:51:35.315Z,72.81
2017-06-25T11:54:02.723Z,73.10
2017-06-25T11:56:30.107Z,73.15
2017-06-25T11:58:57.502Z,73.03
2017-06-25T12:01:24.896Z,72.83
2017-06-25T12:03:52.583Z,73.01
2017-06-25T12:06:19.974Z,73.15
2017-06-25T12:08:47.359Z,73.46
2017-06-25T12:11:14.754Z,74.23
2017-06-25T12:13:42.151Z,73.44
2017-06-25T12:16:09.547Z,72.76
2017-06-25T12:18:36.944Z,72.84
2017-06-25T12:21:04.343Z,73.36
2017-06-25T12:23:31.730Z,73.07
2017-06-25T12:25:59.130Z,73.43
2017-06-25T12:28:26.523Z,74.07
2017-06-25T12:30:53.923Z,76.02
2017-06-25T12:33:21.317Z,75.55
2017-06-25T12:35:48.723Z,75.50
2017-06-25T12:38:16.126Z,74.77
2017-06-25T12:40:43.516Z,75.00
2017-06-25T12:43:10.902Z,73.83
2017-06-25T12:45:38.307Z,73.32
2017-06-25T12:48:05.695Z,73.65
2017-06-25T12:50:33.102Z,72.73
2017-06-25T12:53:00.494Z,73.11
2017-06-25T12:55:27.898Z,72.42
2017-06-25T12:57:55.292Z,72.79
2017-06-25T13:00:22.687Z,72.90
2017-06-25T13:02:50.079Z,73.24
2017-06-25T13:05:17.486Z,72.06
2017-06-25T13:07:44.887Z,71.85
2017-06-25T13:10:12.291Z,73.26
2017-06-25T13:12:39.688Z,72.09
2017-06-25T13:15:07.084Z,72.11
2017-06-25T13:17:34.479Z,70.76
2017-06-25T13:20:01.879Z,71.87
2017-06-25T13:22:29.280Z,71.89
2017-06-25T13:24:56.666Z,70.64
2017-06-25T13:27:24.076Z,70.75
2017-06-25T13:29:51.470Z,70.56
2017-06-25T13:32:18.867Z,71.19
2017-06-25T13:34:46.256Z,70.53
2017-06-25T13:37:13.646Z,70.85
2017-06-25T13:39:41.043Z,72.73
2017-06-25T13:42:08.449Z,71.29
2017-06-25T13:44:35.847Z,70.26
2017-06-25T13:47:03.247Z,69.97
2017-06-25T13:49:30.635Z,69.69
2017-06-25T13:51:58.034Z,69.37
2017-06-25T13:54:25.421Z,68.41
2017-06-25T13:56:52.879Z,68.71
2017-06-25T13:59:20.259Z,68.93
2017-06-25T14:01:47.662Z,68.86
2017-06-25T14:04:15.054Z,69.92
2017-06-25T14:06:42.483Z,69.06
2017-06-25T14:09:09.875Z,69.64
2017-06-25T14:11:37.275Z,68.51
2017-06-25T14:14:04.671Z,69.25
2017-06-25T14:16:32.079Z,68.84
2017-06-25T14:18:59.473Z,69.53
2017-06-25T14:21:26.863Z,69.19
2017-06-25T14:23:54.258Z,67.34
2017-06-25T14:26:21.663Z,66.64
2017-06-25T14:28:49.059Z,66.65
2017-06-25T14:31:16.448Z,66.36
2017-06-25T14:33:43.855Z,65.69
2017-06-25T14:36:11.243Z,65.77
2017-06-25T14:38:38.639Z,65.11
2017-06-25T14:41:06.050Z,65.18
2017-06-25T14:43:33.438Z,65.23
2017-06-25T14:46:00.842Z,66.07
2017-06-25T14:48:28.231Z,66.23
2017-06-25T14:50:55.618Z,66.76
2017-06-25T14:53:23.031Z,66.10
2017-06-25T14:55:50.461Z,66.50
2017-06-25T14:58:17.850Z,66.79
2017-06-25T15:00:45.239Z,66.97
2017-06-25T15:03:12.644Z,66.64
2017-06-25T15:05:40.027Z,65.59
2017-06-25T15:08:07.432Z,66.02
2017-06-25T15:10:34.823Z,66.68
2017-06-25T15:13:02.223Z,67.82
2017-06-25T15:15:29.630Z,68.14
2017-06-25T15:17:57.034Z,67.52
2017-06-25T15:20:24.427Z,69.08
2017-06-25T15:22:51.823Z,69.58
2017-06-25T15:25:19.215Z,69.15
2017-06-25T15:27:46.619Z,69.86
2017-06-25T15:30:14.014Z,68.89
2017-06-25T15:32:41.412Z,69.20
2017-06-25T15:35:08.803Z,69.08
2017-06-25T15:37:36.211Z,69.06
2017-06-25T15:40:03.603Z,68.79
2017-06-25T15:42:30.995Z,69.30
2017-06-25T15:44:58.395Z,69.35
2017-06-25T15:47:25.798Z,69.52
2017-06-25T15:49:53.195Z,69.65
2017-06-25T15:52:20.582Z,71.03
2017-06-25T15:54:47.984Z,71.95
2017-06-25T15:57:15.376Z,72.58
2017-06-25T15:59:42.778Z,72.99
2017-06-25T16:02:10.176Z,74.91
2017-06-25T16:04:37.583Z,75.45
2017-06-25T16:07:04.979Z,76.02
2017-06-25T16:09:32.387Z,76.82
2017-06-25T16:11:59.787Z,76.93
2017-06-25T16:14:27.183Z,77.83
2017-06-25T16:16:54.574Z,78.58
2017-06-25T16:19:21.968Z,78.91
2017-06-25T16:21:49.364Z,78.50
2017-06-25T16:24:16.762Z,77.88
2017-06-25T16:26:44.154Z,78.42
2017-06-25T16:29:11.565Z,77.92
2017-06-25T16:31:38.960Z,78.15
2017-06-25T16:34:06.383Z,78.46
2017-06-25T16:36:33.775Z,78.10
2017-06-25T16:39:01.191Z,78.00
2017-06-25T16:41:28.579Z,78.41
2017-06-25T16:43:55.979Z,77.54
2017-06-25T16:46:23.374Z,77.97
2017-06-25T16:48:51.749Z,78.19
2017-06-25T16:51:19.138Z,77.82
2017-06-25T16:53:46.550Z,78.49
2017-06-25T16:56:14.190Z,77.90
2017-06-25T16:58:41.583Z,78.76
2017-06-25T17:01:08.985Z,78.68
2017-06-25T17:03:36.383Z,78.75
2017-06-25T17:06:03.789Z,79.43
2017-06-25T17:08:31.186Z,79.48
2017-06-25T17:10:58.594Z,79.42
2017-06-25T17:13:25.990Z,78.31
2017-06-25T17:15:53.407Z,78.41
2017-06-25T17:18:20.795Z,78.28
2017-06-25T17:20:48.198Z,78.14
2017-06-25T17:23:15.603Z,78.37
2017-06-25T17:25:43.006Z,77.64
2017-06-25T17:28:10.412Z,77.59
2017-06-25T17:30:37.819Z,76.88
2017-06-25T17:33:05.220Z,76.33
2017-06-25T17:35:32.835Z,76.56
2017-06-25T17:38:00.219Z,76.80
2017-06-25T17:40:27.618Z,76.26
2017-06-25T17:42:55.014Z,76.26
2017-06-25T17:45:22.411Z,76.64
2017-06-25T17:47:49.810Z,75.89
2017-06-25T17:50:17.210Z,75.80
2017-06-25T17:52:44.603Z,76.31
2017-06-25T17:55:12.013Z,76.56
2017-06-25T17:57:39.399Z,77.03
2017-06-25T18:00:06.811Z,77.22
2017-06-25T18:02:34.202Z,77.70
2017-06-25T18:05:01.708Z,77.58
2017-06-25T18:07:29.142Z,77.63
2017-06-25T18:09:56.554Z,76.83
2017-06-25T18:12:23.950Z,77.98
2017-06-25T18:14:51.345Z,77.83
2017-06-25T18:17:19.032Z,76.99
2017-06-25T18:19:46.426Z,77.66
2017-06-25T18:22:13.831Z,77.58
2017-06-25T18:24:41.215Z,77.54
2017-06-25T18:27:08.621Z,78.20
2017-06-25T18:29:36.316Z,78.27
2017-06-25T18:32:03.710Z,77.58
2017-06-25T18:34:31.103Z,78.09
2017-06-25T18:36:58.498Z,77.38
2017-06-25T18:39:25.897Z,76.44
2017-06-25T18:41:53.290Z,76.45
2017-06-25T18:44:20.698Z,75.88
2017-06-25T18:46:48.090Z,75.46
2017-06-25T18:49:15.494Z,75.68
2017-06-25T18:51:43.115Z,74.73
2017-06-25T18:54:10.522Z,74.50
2017-06-25T18:56:38.235Z,74.84
2017-06-25T18:59:05.643Z,74.73
2017-06-25T19:01:33.043Z,74.45
2017-06-25T19:04:00.442Z,74.24
2017-06-25T19:06:28.544Z,73.81
2017-06-25T19:08:55.927Z,72.88
2017-06-25T19:11:23.331Z,73.34
2017-06-25T19:13:50.722Z,72.98
2017-06-25T19:16:18.144Z,72.69
2017-06-25T19:18:45.535Z,72.52
2017-06-25T19:21:12.918Z,72.92
2017-06-25T19:23:40.324Z,72.85
2017-06-25T19:26:07.737Z,72.30
2017-06-25T19:28:35.132Z,72.15
2017-06-25T19:31:02.519Z,72.13
2017-06-25T19:33:29.919Z,71.52
2017-06-25T19:35:57.314Z,71.69
2017-06-25T19:38:24.714Z,71.75
2017-06-25T19:40:52.351Z,71.58
2017-06-25T19:43:19.751Z,71.85
2017-06-25T19:45:47.146Z,71.92
2017-06-25T19:48:14.555Z,71.53
2017-06-25T19:50:41.944Z,72.06
2017-06-25T19:53:09.338Z,71.89
2017-06-25T19:55:36.735Z,72.01
2017-06-25T19:58:04.147Z,71.98
2017-06-25T20:00:31.534Z,71.78
2017-06-25T20:02:58.923Z,71.77
2017-06-25T20:05:26.615Z,71.66
2017-06-25T20:07:54.042Z,71.39
2017-06-25T20:10:21.431Z,71.61
2017-06-25T20:12:48.850Z,71.55
2017-06-25T20:15:16.250Z,71.10
2017-06-25T20:17:43.660Z,70.81
2017-06-25T20:20:11.042Z,71.35
2017-06-25T20:22:38.434Z,71.76
2017-06-25T20:25:05.832Z,71.52
2017-06-25T20:27:33.240Z,71.82
2017-06-25T20:30:00.634Z,71.98
2017-06-25T20:32:28.023Z,71.94
2017-06-25T20:34:55.424Z,72.53
2017-06-25T20:37:22.815Z,72.33
2017-06-25T20:39:50.214Z,73.24
2017-06-25T20:42:17.615Z,72.81
2017-06-25T20:44:45.015Z,72.72
2017-06-25T20:47:12.416Z,72.45
2017-06-25T20:49:39.823Z,73.04
2017-06-25T20:52:07.211Z,72.43
2017-06-25T20:54:34.610Z,72.23
2017-06-25T20:57:02.283Z,71.37
2017-06-25T20:59:29.692Z,71.55
2017-06-25T21:01:57.087Z,72.10
2017-06-25T21:04:24.490Z,71.52
2017-06-25T21:06:51.883Z,71.53
2017-06-25T21:09:19.292Z,71.64
2017-06-25T21:11:46.679Z,71.53
2017-06-25T21:14:14.074Z,71.89
2017-06-25T21:16:41.458Z,71.38
2017-06-25T21:19:08.859Z,71.27
2017-06-25T21:21:36.255Z,71.08
2017-06-25T21:24:03.650Z,71.28
2017-06-25T21:26:31.051Z,71.15
2017-06-25T21:28:58.466Z,71.76
2017-06-25T21:31:25.859Z,71.65
2017-06-25T21:33:53.256Z,71.16
2017-06-25T21:36:20.681Z,71.29
2017-06-25T21:38:48.061Z,70.73
2017-06-25T21:41:15.450Z,71.24
2017-06-25T21:43:43.139Z,71.26
2017-06-25T21:46:10.541Z,70.82
2017-06-25T21:48:37.930Z,70.57
2017-06-25T21:51:05.335Z,71.09
2017-06-25T21:53:32.723Z,70.70
2017-06-25T21:56:00.135Z,70.88
2017-06-25T21:58:27.531Z,70.48
2017-06-25T22:00:54.935Z,70.67
2017-06-25T22:03:22.320Z,70.56
2017-06-25T22:05:49.723Z,70.99
2017-06-25T22:08:17.141Z,70.54
2017-06-25T22:10:44.534Z,70.61
2017-06-25T22:13:11.927Z,70.50
2017-06-25T22:15:39.330Z,71.06
2017-06-25T22:18:06.726Z,70.57
2017-06-25T22:20:34.132Z,71.00
2017-06-25T22:23:01.527Z,70.38
2017-06-25T22:25:28.931Z,70.53
2017-06-25T22:27:56.327Z,70.21
2017-06-25T22:30:23.731Z,71.21
2017-06-25T22:32:51.131Z,70.85
2017-06-25T22:35:18.533Z,70.24
2017-06-25T22:37:45.922Z,70.34
2017-06-25T22:40:13.330Z,70.81
2017-06-25T22:42:40.723Z,71.14
2017-06-25T22:45:08.139Z,70.77
2017-06-25T22:47:35.536Z,70.76
2017-06-25T22:50:02.958Z,70.67
2017-06-25T22:52:30.345Z,70.86
2017-06-25T22:54:57.742Z,70.59
2017-06-25T22:57:25.155Z,70.98
2017-06-25T22:59:52.547Z,70.97
2017-06-25T23:02:19.949Z,70.76
2017-06-25T23:04:47.350Z,70.85
2017-06-25T23:07:14.747Z,70.85
2017-06-25T23:09:42.139Z,70.96
2017-06-25T23:12:09.542Z,71.15
2017-06-25T23:14:36.939Z,70.93
2017-06-25T23:17:04.341Z,70.49
2017-06-25T23:19:31.738Z,71.14
2017-06-25T23:21:59.147Z,71.40
2017-06-25T23:24:26.542Z,70.67
2017-06-25T23:26:53.949Z,71.49
2017-06-25T23:29:21.342Z,71.93
2017-06-25T23:31:48.748Z,72.18
2017-06-25T23:34:16.154Z,71.54
2017-06-25T23:36:43.558Z,72.51
2017-06-25T23:39:10.963Z,73.24
2017-06-25T23:41:38.366Z,72.68
2017-06-25T23:44:05.767Z,73.22
2017-06-25T23:46:33.179Z,73.26
2017-06-25T23:49:00.579Z,72.54
2017-06-25T23:51:27.987Z,73.14
2017-06-25T23:53:55.380Z,72.80
2017-06-25T23:56:22.778Z,72.53
2017-06-25T23:58:50.183Z,72.62
